sensor_id;sensor_type;location;lat;lon;timestamp;P1;durP1;ratioP1;P2;durP2;ratioP2
20657;SDS011;10488;50.846;4.078;2022-10-13T00:00:43;17.35;;;9.20;;
20657;SDS011;10488;50.846;4.078;2022-10-13T00:03:09;15.85;;;9.38;;
20657;SDS011;10488;50.846;4.078;2022-10-13T00:05:39;17.67;;;9.25;;
20657;SDS011;10488;50.846;4.078;2022-10-13T00:08:06;22.13;;;9.55;;
20657;SDS011;10488;50.846;4.078;2022-10-13T00:10:34;21.23;;;10.00;;
20657;SDS011;10488;50.846;4.078;2022-10-13T00:13:01;18.45;;;8.93;;
20657;SDS011;10488;50.846;4.078;2022-10-13T00:15:26;21.35;;;9.80;;
20657;SDS011;10488;50.846;4.078;2022-10-13T00:17:52;21.58;;;10.70;;
20657;SDS011;10488;50.846;4.078;2022-10-13T00:20:18;23.23;;;10.45;;
20657;SDS011;10488;50.846;4.078;2022-10-13T00:22:43;23.73;;;10.68;;
20657;SDS011;10488;50.846;4.078;2022-10-13T00:25:09;18.15;;;9.95;;
20657;SDS011;10488;50.846;4.078;2022-10-13T00:27:35;19.10;;;10.00;;
20657;SDS011;10488;50.846;4.078;2022-10-13T00:30:00;19.67;;;10.50;;
20657;SDS011;10488;50.846;4.078;2022-10-13T00:32:26;24.38;;;11.13;;
20657;SDS011;10488;50.846;4.078;2022-10-13T00:34:51;20.92;;;10.35;;
20657;SDS011;10488;50.846;4.078;2022-10-13T00:37:17;20.88;;;10.82;;
20657;SDS011;10488;50.846;4.078;2022-10-13T00:39:43;21.80;;;10.48;;
20657;SDS011;10488;50.846;4.078;2022-10-13T00:42:10;25.50;;;11.18;;
20657;SDS011;10488;50.846;4.078;2022-10-13T00:47:35;18.77;;;11.65;;
20657;SDS011;10488;50.846;4.078;2022-10-13T00:50:05;26.85;;;11.10;;
20657;SDS011;10488;50.846;4.078;2022-10-13T00:52:34;19.90;;;10.15;;
20657;SDS011;10488;50.846;4.078;2022-10-13T00:55:02;20.70;;;11.10;;
20657;SDS011;10488;50.846;4.078;2022-10-13T00:57:29;20.92;;;12.18;;
20657;SDS011;10488;50.846;4.078;2022-10-13T00:59:56;19.50;;;11.02;;
20657;SDS011;10488;50.846;4.078;2022-10-13T01:02:22;26.15;;;11.48;;
20657;SDS011;10488;50.846;4.078;2022-10-13T01:04:55;24.08;;;10.90;;
20657;SDS011;10488;50.846;4.078;2022-10-13T01:07:22;17.15;;;9.82;;
20657;SDS011;10488;50.846;4.078;2022-10-13T01:09:48;21.88;;;10.70;;
20657;SDS011;10488;50.846;4.078;2022-10-13T01:14:52;19.42;;;10.82;;
20657;SDS011;10488;50.846;4.078;2022-10-13T01:17:51;23.23;;;10.55;;
20657;SDS011;10488;50.846;4.078;2022-10-13T01:31:55;20.38;;;11.50;;
20657;SDS011;10488;50.846;4.078;2022-10-13T01:34:52;20.60;;;11.50;;
20657;SDS011;10488;50.846;4.078;2022-10-13T01:37:30;21.58;;;11.52;;
20657;SDS011;10488;50.846;4.078;2022-10-13T01:48:27;21.35;;;11.70;;
20657;SDS011;10488;50.846;4.078;2022-10-13T01:50:54;22.13;;;12.55;;
20657;SDS011;10488;50.846;4.078;2022-10-13T01:53:22;21.00;;;11.95;;
20657;SDS011;10488;50.846;4.078;2022-10-13T01:55:49;20.73;;;11.55;;
20657;SDS011;10488;50.846;4.078;2022-10-13T01:58:22;22.20;;;11.18;;
20657;SDS011;10488;50.846;4.078;2022-10-13T02:00:54;19.65;;;12.45;;
20657;SDS011;10488;50.846;4.078;2022-10-13T02:06:57;20.58;;;11.57;;
20657;SDS011;10488;50.846;4.078;2022-10-13T02:09:40;25.25;;;11.85;;
20657;SDS011;10488;50.846;4.078;2022-10-13T02:12:19;22.80;;;12.05;;
20657;SDS011;10488;50.846;4.078;2022-10-13T02:14:51;21.10;;;12.52;;
20657;SDS011;10488;50.846;4.078;2022-10-13T02:17:19;19.02;;;11.43;;
20657;SDS011;10488;50.846;4.078;2022-10-13T02:19:45;18.60;;;11.85;;
20657;SDS011;10488;50.846;4.078;2022-10-13T02:22:11;22.23;;;12.05;;
20657;SDS011;10488;50.846;4.078;2022-10-13T02:24:39;27.65;;;13.63;;
20657;SDS011;10488;50.846;4.078;2022-10-13T02:27:05;24.65;;;13.02;;
20657;SDS011;10488;50.846;4.078;2022-10-13T02:29:32;24.92;;;13.40;;
20657;SDS011;10488;50.846;4.078;2022-10-13T02:31:58;24.35;;;12.30;;
20657;SDS011;10488;50.846;4.078;2022-10-13T02:34:24;20.05;;;12.20;;
20657;SDS011;10488;50.846;4.078;2022-10-13T02:36:49;23.30;;;12.73;;
20657;SDS011;10488;50.846;4.078;2022-10-13T02:39:16;22.48;;;12.45;;
20657;SDS011;10488;50.846;4.078;2022-10-13T02:41:42;20.92;;;12.48;;
20657;SDS011;10488;50.846;4.078;2022-10-13T02:44:07;27.67;;;13.70;;
20657;SDS011;10488;50.846;4.078;2022-10-13T02:46:33;21.40;;;12.50;;
20657;SDS011;10488;50.846;4.078;2022-10-13T02:48:59;23.00;;;13.27;;
20657;SDS011;10488;50.846;4.078;2022-10-13T02:51:25;26.05;;;13.98;;
20657;SDS011;10488;50.846;4.078;2022-10-13T02:53:51;26.63;;;13.85;;
20657;SDS011;10488;50.846;4.078;2022-10-13T02:56:16;23.20;;;14.40;;
20657;SDS011;10488;50.846;4.078;2022-10-13T02:58:43;28.83;;;14.02;;
20657;SDS011;10488;50.846;4.078;2022-10-13T03:01:10;23.45;;;13.82;;
20657;SDS011;10488;50.846;4.078;2022-10-13T03:03:37;22.30;;;13.82;;
20657;SDS011;10488;50.846;4.078;2022-10-13T03:06:03;21.60;;;13.70;;
20657;SDS011;10488;50.846;4.078;2022-10-13T03:08:30;22.33;;;13.23;;
20657;SDS011;10488;50.846;4.078;2022-10-13T03:10:57;30.50;;;14.80;;
20657;SDS011;10488;50.846;4.078;2022-10-13T03:13:23;26.73;;;15.40;;
20657;SDS011;10488;50.846;4.078;2022-10-13T03:15:48;26.27;;;15.27;;
20657;SDS011;10488;50.846;4.078;2022-10-13T03:18:14;26.48;;;15.05;;
20657;SDS011;10488;50.846;4.078;2022-10-13T03:20:40;29.52;;;15.75;;
20657;SDS011;10488;50.846;4.078;2022-10-13T03:23:05;24.45;;;14.50;;
20657;SDS011;10488;50.846;4.078;2022-10-13T03:25:32;28.05;;;14.70;;
20657;SDS011;10488;50.846;4.078;2022-10-13T03:27:58;26.65;;;15.57;;
20657;SDS011;10488;50.846;4.078;2022-10-13T03:30:23;29.25;;;14.52;;
20657;SDS011;10488;50.846;4.078;2022-10-13T03:32:50;32.58;;;15.38;;
20657;SDS011;10488;50.846;4.078;2022-10-13T03:35:16;29.60;;;15.23;;
20657;SDS011;10488;50.846;4.078;2022-10-13T03:37:42;26.15;;;15.05;;
20657;SDS011;10488;50.846;4.078;2022-10-13T03:40:08;31.27;;;15.90;;
20657;SDS011;10488;50.846;4.078;2022-10-13T03:42:34;29.88;;;15.07;;
20657;SDS011;10488;50.846;4.078;2022-10-13T03:45:01;31.00;;;15.35;;
20657;SDS011;10488;50.846;4.078;2022-10-13T03:47:28;29.00;;;15.98;;
20657;SDS011;10488;50.846;4.078;2022-10-13T03:49:53;25.35;;;16.02;;
20657;SDS011;10488;50.846;4.078;2022-10-13T03:52:20;28.52;;;15.63;;
20657;SDS011;10488;50.846;4.078;2022-10-13T03:54:46;24.80;;;15.40;;
20657;SDS011;10488;50.846;4.078;2022-10-13T03:57:12;24.38;;;15.50;;
20657;SDS011;10488;50.846;4.078;2022-10-13T03:59:38;33.45;;;16.40;;
20657;SDS011;10488;50.846;4.078;2022-10-13T04:02:05;27.05;;;15.65;;
20657;SDS011;10488;50.846;4.078;2022-10-13T04:04:31;32.83;;;16.50;;
20657;SDS011;10488;50.846;4.078;2022-10-13T04:06:57;28.77;;;15.93;;
20657;SDS011;10488;50.846;4.078;2022-10-13T04:09:22;29.88;;;16.63;;
20657;SDS011;10488;50.846;4.078;2022-10-13T04:11:49;27.42;;;15.75;;
20657;SDS011;10488;50.846;4.078;2022-10-13T04:14:15;28.25;;;16.27;;
20657;SDS011;10488;50.846;4.078;2022-10-13T04:16:41;30.83;;;16.23;;
20657;SDS011;10488;50.846;4.078;2022-10-13T04:19:06;31.90;;;17.10;;
20657;SDS011;10488;50.846;4.078;2022-10-13T04:21:32;35.92;;;17.15;;
20657;SDS011;10488;50.846;4.078;2022-10-13T04:23:59;28.00;;;15.85;;
20657;SDS011;10488;50.846;4.078;2022-10-13T04:26:26;27.27;;;16.65;;
20657;SDS011;10488;50.846;4.078;2022-10-13T04:28:53;26.88;;;16.17;;
20657;SDS011;10488;50.846;4.078;2022-10-13T04:31:20;24.17;;;16.33;;
20657;SDS011;10488;50.846;4.078;2022-10-13T04:33:47;26.80;;;16.60;;
20657;SDS011;10488;50.846;4.078;2022-10-13T04:36:14;29.48;;;16.92;;
20657;SDS011;10488;50.846;4.078;2022-10-13T04:38:40;28.90;;;16.15;;
20657;SDS011;10488;50.846;4.078;2022-10-13T04:41:07;29.85;;;16.70;;
20657;SDS011;10488;50.846;4.078;2022-10-13T04:43:34;25.52;;;15.90;;
20657;SDS011;10488;50.846;4.078;2022-10-13T04:46:01;30.95;;;16.90;;
20657;SDS011;10488;50.846;4.078;2022-10-13T04:48:27;31.33;;;17.00;;
20657;SDS011;10488;50.846;4.078;2022-10-13T04:53:30;32.67;;;16.67;;
20657;SDS011;10488;50.846;4.078;2022-10-13T04:55:59;31.73;;;17.45;;
20657;SDS011;10488;50.846;4.078;2022-10-13T04:58:26;32.30;;;17.52;;
20657;SDS011;10488;50.846;4.078;2022-10-13T05:00:52;32.08;;;16.02;;
20657;SDS011;10488;50.846;4.078;2022-10-13T05:03:18;24.48;;;16.08;;
20657;SDS011;10488;50.846;4.078;2022-10-13T05:05:43;34.75;;;18.17;;
20657;SDS011;10488;50.846;4.078;2022-10-13T05:08:09;34.47;;;17.95;;
20657;SDS011;10488;50.846;4.078;2022-10-13T05:10:35;31.92;;;17.95;;
20657;SDS011;10488;50.846;4.078;2022-10-13T05:13:01;35.92;;;17.98;;
20657;SDS011;10488;50.846;4.078;2022-10-13T05:15:26;35.45;;;17.20;;
20657;SDS011;10488;50.846;4.078;2022-10-13T05:17:52;30.52;;;16.25;;
20657;SDS011;10488;50.846;4.078;2022-10-13T05:20:18;27.10;;;16.10;;
20657;SDS011;10488;50.846;4.078;2022-10-13T05:22:43;31.70;;;15.57;;
20657;SDS011;10488;50.846;4.078;2022-10-13T05:25:09;32.75;;;15.95;;
20657;SDS011;10488;50.846;4.078;2022-10-13T05:27:34;34.03;;;17.30;;
20657;SDS011;10488;50.846;4.078;2022-10-13T05:30:00;32.47;;;16.33;;
20657;SDS011;10488;50.846;4.078;2022-10-13T05:32:26;30.85;;;16.23;;
20657;SDS011;10488;50.846;4.078;2022-10-13T05:34:51;20.38;;;14.70;;
20657;SDS011;10488;50.846;4.078;2022-10-13T05:37:17;35.08;;;16.63;;
20657;SDS011;10488;50.846;4.078;2022-10-13T05:39:43;26.88;;;14.60;;
20657;SDS011;10488;50.846;4.078;2022-10-13T05:42:09;30.48;;;16.08;;
20657;SDS011;10488;50.846;4.078;2022-10-13T05:44:35;28.08;;;15.35;;
20657;SDS011;10488;50.846;4.078;2022-10-13T05:47:01;28.48;;;15.20;;
20657;SDS011;10488;50.846;4.078;2022-10-13T05:49:29;28.90;;;15.63;;
20657;SDS011;10488;50.846;4.078;2022-10-13T05:52:05;34.03;;;14.77;;
20657;SDS011;10488;50.846;4.078;2022-10-13T05:54:40;29.73;;;15.02;;
20657;SDS011;10488;50.846;4.078;2022-10-13T05:57:17;30.25;;;15.18;;
20657;SDS011;10488;50.846;4.078;2022-10-13T06:00:06;32.03;;;15.85;;
20657;SDS011;10488;50.846;4.078;2022-10-13T06:02:38;29.80;;;14.75;;
20657;SDS011;10488;50.846;4.078;2022-10-13T06:05:15;26.48;;;15.18;;
20657;SDS011;10488;50.846;4.078;2022-10-13T06:07:43;28.35;;;15.38;;
20657;SDS011;10488;50.846;4.078;2022-10-13T06:10:11;27.02;;;14.38;;
20657;SDS011;10488;50.846;4.078;2022-10-13T06:12:37;28.52;;;15.73;;
20657;SDS011;10488;50.846;4.078;2022-10-13T06:15:03;29.63;;;15.18;;
20657;SDS011;10488;50.846;4.078;2022-10-13T06:17:29;31.23;;;15.98;;
20657;SDS011;10488;50.846;4.078;2022-10-13T06:19:54;29.85;;;15.30;;
20657;SDS011;10488;50.846;4.078;2022-10-13T06:22:20;25.75;;;16.05;;
20657;SDS011;10488;50.846;4.078;2022-10-13T06:24:46;34.17;;;16.30;;
20657;SDS011;10488;50.846;4.078;2022-10-13T06:27:11;34.58;;;15.27;;
20657;SDS011;10488;50.846;4.078;2022-10-13T06:29:37;31.40;;;15.90;;
20657;SDS011;10488;50.846;4.078;2022-10-13T06:32:03;22.08;;;14.45;;
20657;SDS011;10488;50.846;4.078;2022-10-13T06:34:29;32.13;;;14.93;;
20657;SDS011;10488;50.846;4.078;2022-10-13T06:36:55;31.23;;;13.93;;
20657;SDS011;10488;50.846;4.078;2022-10-13T06:39:20;22.70;;;13.98;;
20657;SDS011;10488;50.846;4.078;2022-10-13T06:41:48;37.75;;;15.25;;
20657;SDS011;10488;50.846;4.078;2022-10-13T06:44:14;28.35;;;14.80;;
20657;SDS011;10488;50.846;4.078;2022-10-13T06:46:40;25.33;;;14.95;;
20657;SDS011;10488;50.846;4.078;2022-10-13T06:49:05;23.08;;;13.43;;
20657;SDS011;10488;50.846;4.078;2022-10-13T06:51:34;21.90;;;13.10;;
20657;SDS011;10488;50.846;4.078;2022-10-13T06:53:59;21.35;;;13.18;;
20657;SDS011;10488;50.846;4.078;2022-10-13T06:56:25;23.02;;;14.10;;
20657;SDS011;10488;50.846;4.078;2022-10-13T06:58:52;25.15;;;15.23;;
20657;SDS011;10488;50.846;4.078;2022-10-13T07:01:18;24.40;;;13.98;;
20657;SDS011;10488;50.846;4.078;2022-10-13T07:03:46;23.45;;;13.35;;
20657;SDS011;10488;50.846;4.078;2022-10-13T07:06:14;30.13;;;15.50;;
20657;SDS011;10488;50.846;4.078;2022-10-13T07:08:40;25.45;;;14.82;;
20657;SDS011;10488;50.846;4.078;2022-10-13T07:11:09;23.77;;;14.90;;
20657;SDS011;10488;50.846;4.078;2022-10-13T07:13:37;26.15;;;14.32;;
20657;SDS011;10488;50.846;4.078;2022-10-13T07:16:07;31.48;;;14.18;;
20657;SDS011;10488;50.846;4.078;2022-10-13T07:18:33;28.48;;;13.98;;
20657;SDS011;10488;50.846;4.078;2022-10-13T07:21:00;24.80;;;13.68;;
20657;SDS011;10488;50.846;4.078;2022-10-13T07:23:26;23.45;;;13.77;;
20657;SDS011;10488;50.846;4.078;2022-10-13T07:25:53;27.05;;;14.93;;
20657;SDS011;10488;50.846;4.078;2022-10-13T07:28:21;27.75;;;15.43;;
20657;SDS011;10488;50.846;4.078;2022-10-13T07:30:47;29.00;;;15.40;;
20657;SDS011;10488;50.846;4.078;2022-10-13T07:33:13;32.10;;;15.27;;
20657;SDS011;10488;50.846;4.078;2022-10-13T07:35:38;24.48;;;14.77;;
20657;SDS011;10488;50.846;4.078;2022-10-13T07:38:05;34.97;;;16.77;;
20657;SDS011;10488;50.846;4.078;2022-10-13T07:40:31;32.50;;;14.20;;
20657;SDS011;10488;50.846;4.078;2022-10-13T07:42:57;35.75;;;15.80;;
20657;SDS011;10488;50.846;4.078;2022-10-13T07:45:23;27.15;;;14.02;;
20657;SDS011;10488;50.846;4.078;2022-10-13T07:47:48;28.88;;;14.45;;
20657;SDS011;10488;50.846;4.078;2022-10-13T07:50:14;26.23;;;14.02;;
20657;SDS011;10488;50.846;4.078;2022-10-13T07:52:40;31.45;;;14.23;;
20657;SDS011;10488;50.846;4.078;2022-10-13T07:55:06;28.30;;;14.02;;
20657;SDS011;10488;50.846;4.078;2022-10-13T07:57:32;26.30;;;15.07;;
20657;SDS011;10488;50.846;4.078;2022-10-13T07:59:58;24.55;;;13.90;;
20657;SDS011;10488;50.846;4.078;2022-10-13T08:02:23;29.35;;;14.55;;
20657;SDS011;10488;50.846;4.078;2022-10-13T08:04:50;26.38;;;14.93;;
20657;SDS011;10488;50.846;4.078;2022-10-13T08:07:15;29.88;;;13.65;;
20657;SDS011;10488;50.846;4.078;2022-10-13T08:09:41;36.15;;;14.07;;
20657;SDS011;10488;50.846;4.078;2022-10-13T08:12:07;26.15;;;12.80;;
20657;SDS011;10488;50.846;4.078;2022-10-13T08:14:33;24.00;;;12.02;;
20657;SDS011;10488;50.846;4.078;2022-10-13T08:16:59;30.40;;;12.10;;
20657;SDS011;10488;50.846;4.078;2022-10-13T08:19:25;26.90;;;11.55;;
20657;SDS011;10488;50.846;4.078;2022-10-13T08:21:52;25.52;;;11.30;;
20657;SDS011;10488;50.846;4.078;2022-10-13T08:24:18;20.00;;;11.35;;
20657;SDS011;10488;50.846;4.078;2022-10-13T08:26:48;27.27;;;11.70;;
20657;SDS011;10488;50.846;4.078;2022-10-13T08:29:15;21.70;;;10.32;;
20657;SDS011;10488;50.846;4.078;2022-10-13T08:31:41;26.33;;;12.10;;
20657;SDS011;10488;50.846;4.078;2022-10-13T08:34:07;22.35;;;10.73;;
20657;SDS011;10488;50.846;4.078;2022-10-13T08:36:34;25.95;;;11.25;;
20657;SDS011;10488;50.846;4.078;2022-10-13T08:39:00;22.95;;;11.02;;
20657;SDS011;10488;50.846;4.078;2022-10-13T08:41:31;18.90;;;10.18;;
20657;SDS011;10488;50.846;4.078;2022-10-13T08:44:05;24.23;;;10.13;;
20657;SDS011;10488;50.846;4.078;2022-10-13T08:47:01;27.38;;;11.15;;
20657;SDS011;10488;50.846;4.078;2022-10-13T08:49:50;23.88;;;10.18;;
20657;SDS011;10488;50.846;4.078;2022-10-13T08:52:19;20.00;;;10.00;;
20657;SDS011;10488;50.846;4.078;2022-10-13T08:54:47;17.45;;;9.90;;
20657;SDS011;10488;50.846;4.078;2022-10-13T08:57:13;22.83;;;10.82;;
20657;SDS011;10488;50.846;4.078;2022-10-13T08:59:39;16.33;;;10.02;;
20657;SDS011;10488;50.846;4.078;2022-10-13T09:02:10;17.95;;;11.05;;
20657;SDS011;10488;50.846;4.078;2022-10-13T09:04:39;18.52;;;10.52;;
20657;SDS011;10488;50.846;4.078;2022-10-13T09:09:33;20.88;;;10.07;;
20657;SDS011;10488;50.846;4.078;2022-10-13T09:11:59;14.63;;;9.18;;
20657;SDS011;10488;50.846;4.078;2022-10-13T09:16:53;14.88;;;9.43;;
20657;SDS011;10488;50.846;4.078;2022-10-13T09:19:25;21.25;;;9.57;;
20657;SDS011;10488;50.846;4.078;2022-10-13T09:21:55;21.25;;;9.43;;
20657;SDS011;10488;50.846;4.078;2022-10-13T09:24:24;17.38;;;9.10;;
20657;SDS011;10488;50.846;4.078;2022-10-13T09:27:01;19.60;;;10.02;;
20657;SDS011;10488;50.846;4.078;2022-10-13T09:29:36;26.23;;;9.32;;
20657;SDS011;10488;50.846;4.078;2022-10-13T09:32:21;16.45;;;9.43;;
20657;SDS011;10488;50.846;4.078;2022-10-13T09:34:49;21.33;;;10.07;;
20657;SDS011;10488;50.846;4.078;2022-10-13T09:37:20;16.17;;;9.45;;
20657;SDS011;10488;50.846;4.078;2022-10-13T09:42:40;17.35;;;9.23;;
20657;SDS011;10488;50.846;4.078;2022-10-13T09:45:15;18.77;;;9.15;;
20657;SDS011;10488;50.846;4.078;2022-10-13T09:47:53;17.45;;;9.45;;
20657;SDS011;10488;50.846;4.078;2022-10-13T09:52:48;20.33;;;11.30;;
20657;SDS011;10488;50.846;4.078;2022-10-13T09:55:29;14.82;;;9.70;;
20657;SDS011;10488;50.846;4.078;2022-10-13T09:58:13;16.13;;;10.10;;
20657;SDS011;10488;50.846;4.078;2022-10-13T10:00:44;16.13;;;9.85;;
20657;SDS011;10488;50.846;4.078;2022-10-13T10:03:23;18.10;;;10.68;;
20657;SDS011;10488;50.846;4.078;2022-10-13T10:05:56;16.00;;;10.48;;
20657;SDS011;10488;50.846;4.078;2022-10-13T10:11:19;23.13;;;10.60;;
20657;SDS011;10488;50.846;4.078;2022-10-13T10:13:51;20.70;;;11.15;;
20657;SDS011;10488;50.846;4.078;2022-10-13T10:22:11;21.95;;;11.38;;
20657;SDS011;10488;50.846;4.078;2022-10-13T10:28:04;18.60;;;10.70;;
20657;SDS011;10488;50.846;4.078;2022-10-13T10:30:36;20.65;;;11.82;;
20657;SDS011;10488;50.846;4.078;2022-10-13T10:33:12;17.77;;;11.93;;
20657;SDS011;10488;50.846;4.078;2022-10-13T10:41:05;21.40;;;11.93;;
20657;SDS011;10488;50.846;4.078;2022-10-13T10:43:42;18.92;;;12.38;;
20657;SDS011;10488;50.846;4.078;2022-10-13T10:46:23;24.45;;;13.70;;
20657;SDS011;10488;50.846;4.078;2022-10-13T10:49:02;22.77;;;13.35;;
20657;SDS011;10488;50.846;4.078;2022-10-13T10:51:36;21.70;;;13.05;;
20657;SDS011;10488;50.846;4.078;2022-10-13T10:57:02;22.15;;;12.52;;
20657;SDS011;10488;50.846;4.078;2022-10-13T10:59:57;20.35;;;12.82;;
20657;SDS011;10488;50.846;4.078;2022-10-13T11:05:24;23.33;;;13.32;;
20657;SDS011;10488;50.846;4.078;2022-10-13T11:17:01;19.70;;;11.30;;
20657;SDS011;10488;50.846;4.078;2022-10-13T11:37:45;17.98;;;11.75;;
20657;SDS011;10488;50.846;4.078;2022-10-13T11:43:25;19.02;;;11.82;;
20657;SDS011;10488;50.846;4.078;2022-10-13T11:51:36;16.48;;;11.07;;
20657;SDS011;10488;50.846;4.078;2022-10-13T11:54:22;18.55;;;11.60;;
20657;SDS011;10488;50.846;4.078;2022-10-13T11:56:58;19.45;;;12.10;;
20657;SDS011;10488;50.846;4.078;2022-10-13T12:04:35;25.77;;;13.48;;
20657;SDS011;10488;50.846;4.078;2022-10-13T12:07:04;24.58;;;12.98;;
20657;SDS011;10488;50.846;4.078;2022-10-13T12:09:31;19.70;;;12.82;;
20657;SDS011;10488;50.846;4.078;2022-10-13T12:11:59;22.58;;;13.05;;
20657;SDS011;10488;50.846;4.078;2022-10-13T12:14:48;22.08;;;14.20;;
20657;SDS011;10488;50.846;4.078;2022-10-13T12:19:44;21.48;;;12.70;;
20657;SDS011;10488;50.846;4.078;2022-10-13T12:22:10;26.00;;;14.63;;
20657;SDS011;10488;50.846;4.078;2022-10-13T12:24:36;25.42;;;15.02;;
20657;SDS011;10488;50.846;4.078;2022-10-13T12:27:08;22.48;;;15.75;;
20657;SDS011;10488;50.846;4.078;2022-10-13T12:29:44;25.08;;;16.15;;
20657;SDS011;10488;50.846;4.078;2022-10-13T12:32:22;28.48;;;15.80;;
20657;SDS011;10488;50.846;4.078;2022-10-13T12:34:53;26.33;;;16.58;;
20657;SDS011;10488;50.846;4.078;2022-10-13T12:37:26;33.33;;;17.50;;
20657;SDS011;10488;50.846;4.078;2022-10-13T12:39:55;31.00;;;18.23;;
20657;SDS011;10488;50.846;4.078;2022-10-13T12:42:26;24.60;;;16.95;;
20657;SDS011;10488;50.846;4.078;2022-10-13T12:44:55;24.38;;;16.60;;
20657;SDS011;10488;50.846;4.078;2022-10-13T12:52:53;23.50;;;16.67;;
20657;SDS011;10488;50.846;4.078;2022-10-13T12:58:41;24.52;;;15.65;;
20657;SDS011;10488;50.846;4.078;2022-10-13T13:03:33;28.10;;;17.48;;
20657;SDS011;10488;50.846;4.078;2022-10-13T13:08:39;21.90;;;16.55;;
20657;SDS011;10488;50.846;4.078;2022-10-13T13:11:07;26.92;;;16.27;;
20657;SDS011;10488;50.846;4.078;2022-10-13T13:13:47;20.02;;;14.43;;
20657;SDS011;10488;50.846;4.078;2022-10-13T13:16:14;25.30;;;15.32;;
20657;SDS011;10488;50.846;4.078;2022-10-13T13:18:45;20.23;;;15.20;;
20657;SDS011;10488;50.846;4.078;2022-10-13T13:21:13;22.75;;;15.02;;
20657;SDS011;10488;50.846;4.078;2022-10-13T13:23:40;23.63;;;14.65;;
20657;SDS011;10488;50.846;4.078;2022-10-13T13:26:12;24.27;;;15.30;;
20657;SDS011;10488;50.846;4.078;2022-10-13T13:28:46;23.33;;;15.18;;
20657;SDS011;10488;50.846;4.078;2022-10-13T13:31:20;27.58;;;16.00;;
20657;SDS011;10488;50.846;4.078;2022-10-13T13:33:48;21.23;;;14.75;;
20657;SDS011;10488;50.846;4.078;2022-10-13T13:38:47;20.55;;;14.15;;
20657;SDS011;10488;50.846;4.078;2022-10-13T13:41:13;22.40;;;14.75;;
20657;SDS011;10488;50.846;4.078;2022-10-13T13:43:39;25.05;;;15.20;;
20657;SDS011;10488;50.846;4.078;2022-10-13T13:46:06;23.38;;;14.63;;
20657;SDS011;10488;50.846;4.078;2022-10-13T13:48:39;23.67;;;14.80;;
20657;SDS011;10488;50.846;4.078;2022-10-13T13:51:05;25.10;;;14.75;;
20657;SDS011;10488;50.846;4.078;2022-10-13T13:53:33;24.52;;;13.73;;
20657;SDS011;10488;50.846;4.078;2022-10-13T13:55:58;23.30;;;15.23;;
20657;SDS011;10488;50.846;4.078;2022-10-13T13:58:24;24.42;;;15.10;;
20657;SDS011;10488;50.846;4.078;2022-10-13T14:00:49;23.60;;;16.35;;
20657;SDS011;10488;50.846;4.078;2022-10-13T14:03:15;25.38;;;15.57;;
20657;SDS011;10488;50.846;4.078;2022-10-13T14:05:41;22.20;;;15.15;;
20657;SDS011;10488;50.846;4.078;2022-10-13T14:08:06;27.95;;;15.48;;
20657;SDS011;10488;50.846;4.078;2022-10-13T14:10:32;25.60;;;15.30;;
20657;SDS011;10488;50.846;4.078;2022-10-13T14:12:58;18.35;;;14.02;;
20657;SDS011;10488;50.846;4.078;2022-10-13T14:15:24;26.05;;;16.63;;
20657;SDS011;10488;50.846;4.078;2022-10-13T14:17:51;26.65;;;16.05;;
20657;SDS011;10488;50.846;4.078;2022-10-13T14:20:21;24.80;;;17.52;;
20657;SDS011;10488;50.846;4.078;2022-10-13T14:22:46;24.42;;;15.60;;
20657;SDS011;10488;50.846;4.078;2022-10-13T14:25:12;24.13;;;16.48;;
20657;SDS011;10488;50.846;4.078;2022-10-13T14:27:38;25.77;;;16.58;;
20657;SDS011;10488;50.846;4.078;2022-10-13T14:30:04;23.33;;;16.08;;
20657;SDS011;10488;50.846;4.078;2022-10-13T14:32:30;22.27;;;14.57;;
20657;SDS011;10488;50.846;4.078;2022-10-13T14:34:56;22.88;;;14.38;;
20657;SDS011;10488;50.846;4.078;2022-10-13T14:37:22;25.33;;;13.63;;
20657;SDS011;10488;50.846;4.078;2022-10-13T14:39:48;19.58;;;14.38;;
20657;SDS011;10488;50.846;4.078;2022-10-13T14:42:13;21.92;;;14.48;;
20657;SDS011;10488;50.846;4.078;2022-10-13T14:44:39;19.00;;;12.43;;
20657;SDS011;10488;50.846;4.078;2022-10-13T14:47:04;17.17;;;11.13;;
20657;SDS011;10488;50.846;4.078;2022-10-13T14:49:30;16.98;;;10.40;;
20657;SDS011;10488;50.846;4.078;2022-10-13T14:51:56;14.23;;;10.35;;
20657;SDS011;10488;50.846;4.078;2022-10-13T14:54:22;24.05;;;11.63;;
20657;SDS011;10488;50.846;4.078;2022-10-13T14:56:48;16.67;;;11.65;;
20657;SDS011;10488;50.846;4.078;2022-10-13T14:59:13;16.77;;;11.75;;
20657;SDS011;10488;50.846;4.078;2022-10-13T15:01:39;14.25;;;10.50;;
20657;SDS011;10488;50.846;4.078;2022-10-13T15:04:05;13.48;;;8.90;;
20657;SDS011;10488;50.846;4.078;2022-10-13T15:06:31;13.35;;;9.07;;
20657;SDS011;10488;50.846;4.078;2022-10-13T15:08:58;14.52;;;8.75;;
20657;SDS011;10488;50.846;4.078;2022-10-13T15:11:24;12.05;;;9.15;;
20657;SDS011;10488;50.846;4.078;2022-10-13T15:13:50;12.13;;;8.57;;
20657;SDS011;10488;50.846;4.078;2022-10-13T15:16:17;12.23;;;8.95;;
20657;SDS011;10488;50.846;4.078;2022-10-13T15:18:44;11.50;;;10.30;;
20657;SDS011;10488;50.846;4.078;2022-10-13T15:21:11;16.75;;;9.70;;
20657;SDS011;10488;50.846;4.078;2022-10-13T15:23:37;12.13;;;8.98;;
20657;SDS011;10488;50.846;4.078;2022-10-13T15:26:03;12.05;;;7.93;;
20657;SDS011;10488;50.846;4.078;2022-10-13T15:28:33;14.07;;;9.13;;
20657;SDS011;10488;50.846;4.078;2022-10-13T15:31:03;15.00;;;8.57;;
20657;SDS011;10488;50.846;4.078;2022-10-13T15:33:30;12.27;;;9.25;;
20657;SDS011;10488;50.846;4.078;2022-10-13T15:35:56;12.10;;;9.57;;
20657;SDS011;10488;50.846;4.078;2022-10-13T15:38:22;12.65;;;8.93;;
20657;SDS011;10488;50.846;4.078;2022-10-13T15:40:48;14.75;;;9.07;;
20657;SDS011;10488;50.846;4.078;2022-10-13T15:43:14;12.10;;;8.93;;
20657;SDS011;10488;50.846;4.078;2022-10-13T15:45:40;12.00;;;9.02;;
20657;SDS011;10488;50.846;4.078;2022-10-13T15:48:06;14.20;;;8.88;;
20657;SDS011;10488;50.846;4.078;2022-10-13T15:50:34;13.60;;;9.35;;
20657;SDS011;10488;50.846;4.078;2022-10-13T15:53:03;12.60;;;9.18;;
20657;SDS011;10488;50.846;4.078;2022-10-13T15:55:29;14.85;;;9.90;;
20657;SDS011;10488;50.846;4.078;2022-10-13T15:57:55;15.52;;;10.15;;
20657;SDS011;10488;50.846;4.078;2022-10-13T16:00:21;15.18;;;11.57;;
20657;SDS011;10488;50.846;4.078;2022-10-13T16:02:47;14.50;;;9.68;;
20657;SDS011;10488;50.846;4.078;2022-10-13T16:05:15;14.23;;;9.95;;
20657;SDS011;10488;50.846;4.078;2022-10-13T16:07:41;15.02;;;10.35;;
20657;SDS011;10488;50.846;4.078;2022-10-13T16:10:07;16.02;;;10.48;;
20657;SDS011;10488;50.846;4.078;2022-10-13T16:12:34;15.10;;;10.02;;
20657;SDS011;10488;50.846;4.078;2022-10-13T16:14:59;14.25;;;10.68;;
20657;SDS011;10488;50.846;4.078;2022-10-13T16:17:25;14.95;;;10.98;;
20657;SDS011;10488;50.846;4.078;2022-10-13T16:19:51;14.57;;;10.82;;
20657;SDS011;10488;50.846;4.078;2022-10-13T16:22:17;16.15;;;11.40;;
20657;SDS011;10488;50.846;4.078;2022-10-13T16:24:43;17.33;;;12.50;;
20657;SDS011;10488;50.846;4.078;2022-10-13T16:27:08;17.73;;;12.32;;
20657;SDS011;10488;50.846;4.078;2022-10-13T16:29:34;14.18;;;11.30;;
20657;SDS011;10488;50.846;4.078;2022-10-13T16:32:00;17.33;;;12.05;;
20657;SDS011;10488;50.846;4.078;2022-10-13T16:34:26;18.50;;;12.43;;